Time;durP1;ratioP1;P1;durP2;ratioP2;P2;SDS_P1;SDS_P2;PMS_P1;PMS_P2;Temp;Humidity;BMP_temperature;BMP_pressure;BME280_temperature;BME280_humidity;BME280_pressure;Samples;Min_cycle;Max_cycle;Signal;HPM_P1;HPM_P2
2021/08/22 00:00:31;;;;;;;32.45;17.95;;;14.40;99.90;;;;;;5035924;28;20305;-88
2021/08/22 00:02:57;;;;;;;28.92;17.35;;;14.30;99.90;;;;;;5035427;28;20259;-88
2021/08/22 00:05:22;;;;;;;27.77;17.73;;;14.30;99.90;;;;;;5019560;28;20272;-89
2021/08/22 00:07:48;;;;;;;29.23;17.38;;;14.30;99.90;;;;;;5019191;28;20245;-89
2021/08/22 00:10:14;;;;;;;25.38;17.13;;;14.30;99.90;;;;;;5035315;28;20253;-89
2021/08/22 00:12:40;;;;;;;25.88;16.27;;;14.30;99.90;;;;;;5019188;28;20183;-89
2021/08/22 00:15:07;;;;;;;30.60;17.48;;;14.20;99.90;;;;;;5035348;28;20203;-89
2021/08/22 00:17:33;;;;;;;31.70;17.83;;;14.20;99.90;;;;;;5053252;28;20176;-88
2021/08/22 00:19:59;;;;;;;30.35;18.23;;;14.10;99.90;;;;;;5035350;28;20525;-89
2021/08/22 00:22:24;;;;;;;28.98;17.42;;;14.10;99.90;;;;;;5053649;28;20176;-88
2021/08/22 00:24:50;;;;;;;25.05;17.13;;;14.10;99.90;;;;;;5053015;28;20253;-89
2021/08/22 00:27:16;;;;;;;27.75;18.23;;;14.10;99.90;;;;;;5053092;28;20568;-88
2021/08/22 00:29:41;;;;;;;29.25;17.55;;;14.00;99.90;;;;;;5035990;28;20180;-89
2021/08/22 00:32:07;;;;;;;25.73;16.75;;;14.00;99.90;;;;;;5036695;28;20211;-88
2021/08/22 00:34:33;;;;;;;28.60;17.55;;;14.00;99.90;;;;;;5020468;28;20229;-88
2021/08/22 00:36:59;;;;;;;30.05;17.83;;;;;;;;;;5037644;28;20179;-88
2021/08/22 00:39:29;;;;;;;26.80;17.58;;;13.90;99.90;;;;;;5037858;28;20695;-88
2021/08/22 00:41:55;;;;;;;29.88;17.60;;;13.90;99.90;;;;;;5036990;28;20183;-88
2021/08/22 00:44:21;;;;;;;32.33;17.67;;;13.90;99.90;;;;;;5037673;28;20180;-89
2021/08/22 00:46:52;;;;;;;24.83;16.48;;;13.80;99.90;;;;;;5052787;28;20207;-88
2021/08/22 00:49:20;;;;;;;29.05;17.00;;;13.70;99.90;;;;;;5034832;28;20716;-88
2021/08/22 00:51:46;;;;;;;27.02;17.90;;;13.70;99.90;;;;;;5052687;28;20171;-88
2021/08/22 00:54:12;;;;;;;35.60;18.70;;;13.60;99.90;;;;;;5001902;28;20233;-88
2021/08/22 00:56:39;;;;;;;28.45;17.92;;;13.70;99.90;;;;;;5052911;28;20267;-88
2021/08/22 00:59:07;;;;;;;30.55;19.73;;;13.60;99.90;;;;;;5035218;28;20207;-88
2021/08/22 01:01:33;;;;;;;28.73;17.70;;;13.60;99.90;;;;;;5034932;28;20235;-88
2021/08/22 01:04:27;;;;;;;28.25;17.48;;;13.60;99.90;;;;;;5052525;28;20258;-87
2021/08/22 01:07:07;;;;;;;33.60;18.55;;;13.60;99.90;;;;;;5052588;28;20234;-88
2021/08/22 01:09:36;;;;;;;31.10;18.05;;;13.60;99.90;;;;;;5052582;28;20243;-88
2021/08/22 01:12:06;;;;;;;32.25;18.35;;;13.60;99.90;;;;;;5034731;28;20218;-88
2021/08/22 01:14:40;;;;;;;31.38;17.77;;;13.60;99.90;;;;;;5053315;28;20563;-88
2021/08/22 01:17:06;;;;;;;31.33;17.80;;;13.60;99.90;;;;;;5052693;28;20202;-87
2021/08/22 01:19:40;;;;;;;31.38;17.83;;;13.50;99.90;;;;;;5018589;28;20175;-88
2021/08/22 01:22:07;;;;;;;32.95;18.27;;;13.50;99.90;;;;;;5052899;28;20637;-88
2021/08/22 01:24:37;;;;;;;27.90;17.60;;;13.50;99.90;;;;;;5052849;28;20176;-88
2021/08/22 01:27:04;;;;;;;28.02;17.02;;;13.50;99.90;;;;;;5034557;28;20207;-87
2021/08/22 01:29:36;;;;;;;29.85;17.88;;;13.50;99.90;;;;;;5052901;28;20187;-88
2021/08/22 01:32:02;;;;;;;29.60;17.05;;;13.40;99.90;;;;;;5035519;28;20206;-87
2021/08/22 01:34:29;;;;;;;29.88;16.25;;;13.40;99.90;;;;;;5034844;28;20207;-88
2021/08/22 01:36:57;;;;;;;29.05;17.50;;;13.30;99.90;;;;;;5052732;28;20252;-88
2021/08/22 01:39:23;;;;;;;27.13;17.17;;;13.30;99.90;;;;;;5034504;28;20176;-88
2021/08/22 01:41:50;;;;;;;26.42;16.92;;;13.30;99.90;;;;;;5052953;28;20689;-88
2021/08/22 01:44:17;;;;;;;25.20;17.40;;;13.30;99.90;;;;;;5052472;28;20645;-88
2021/08/22 01:46:44;;;;;;;29.63;16.42;;;13.30;99.90;;;;;;5035880;28;20295;-88
2021/08/22 01:49:11;;;;;;;25.73;15.85;;;13.30;99.90;;;;;;5055702;28;20263;-87
2021/08/22 01:51:38;;;;;;;25.58;15.38;;;13.30;99.90;;;;;;5021970;28;20273;-87
2021/08/22 01:54:09;;;;;;;24.38;16.95;;;13.30;99.90;;;;;;5037749;28;20188;-87
2021/08/22 01:56:35;;;;;;;22.02;14.73;;;13.30;99.90;;;;;;5038818;28;20210;-88
2021/08/22 01:59:02;;;;;;;27.73;15.52;;;13.30;99.90;;;;;;5055665;28;20268;-88
2021/08/22 02:01:28;;;;;;;26.42;15.23;;;13.30;99.90;;;;;;5021375;28;20242;-88
2021/08/22 02:04:16;;;;;;;26.33;15.13;;;13.30;99.90;;;;;;5038027;28;20168;-89
2021/08/22 02:07:12;;;;;;;22.85;14.82;;;13.30;99.90;;;;;;5038319;28;20297;-89
2021/08/22 02:10:00;;;;;;;23.58;13.95;;;13.30;99.90;;;;;;5037866;28;20179;-89
2021/08/22 02:12:26;;;;;;;21.42;14.07;;;13.30;99.90;;;;;;5055089;28;20217;-88
2021/08/22 02:15:03;;;;;;;20.58;14.13;;;13.30;99.90;;;;;;5055814;28;20226;-88
2021/08/22 02:17:35;;;;;;;27.58;14.55;;;13.20;99.90;;;;;;5055485;28;20180;-88
2021/08/22 02:20:06;;;;;;;20.83;14.02;;;13.20;99.90;;;;;;5055675;28;20171;-88
2021/08/22 02:22:34;;;;;;;23.80;14.38;;;13.20;99.90;;;;;;5037741;28;20176;-88
2021/08/22 02:25:01;;;;;;;19.33;14.13;;;13.10;99.90;;;;;;5055080;28;20751;-88
2021/08/22 02:27:28;;;;;;;19.88;14.10;;;13.10;99.90;;;;;;5055018;28;20211;-88
2021/08/22 02:29:55;;;;;;;25.55;14.43;;;13.10;99.90;;;;;;5055334;28;20175;-88
2021/08/22 02:32:21;;;;;;;22.67;14.57;;;13.00;99.90;;;;;;5037480;28;20176;-89
2021/08/22 02:34:47;;;;;;;20.75;14.02;;;13.00;99.90;;;;;;5055130;28;20172;-89
2021/08/22 02:37:12;;;;;;;23.98;14.80;;;13.00;99.90;;;;;;5037103;28;20676;-88
2021/08/22 02:39:38;;;;;;;26.00;13.75;;;13.00;99.90;;;;;;5037700;28;20267;-88
2021/08/22 02:42:04;;;;;;;23.13;14.02;;;12.90;99.90;;;;;;5055056;28;20621;-88
2021/08/22 02:44:31;;;;;;;23.10;14.98;;;12.90;99.90;;;;;;5054339;28;20191;-88
2021/08/22 02:46:57;;;;;;;23.85;13.57;;;12.80;99.90;;;;;;5054861;28;20678;-87
2021/08/22 02:49:22;;;;;;;23.65;14.43;;;12.80;99.90;;;;;;5036723;28;20270;-87
2021/08/22 02:51:49;;;;;;;22.63;13.70;;;12.70;99.90;;;;;;5036986;28;20198;-88
2021/08/22 02:54:15;;;;;;;24.88;15.48;;;12.70;99.90;;;;;;5054563;28;20187;-87
2021/08/22 02:56:40;;;;;;;22.05;14.50;;;12.60;99.90;;;;;;5037084;28;20180;-87
2021/08/22 02:59:06;;;;;;;26.45;13.95;;;12.60;99.90;;;;;;5036679;28;20559;-87
2021/08/22 03:01:32;;;;;;;22.13;14.32;;;12.60;99.90;;;;;;5019750;28;20305;-88
2021/08/22 03:03:57;;;;;;;26.50;14.45;;;12.50;99.90;;;;;;5054696;28;20541;-87
2021/08/22 03:06:23;;;;;;;23.70;13.60;;;12.50;99.90;;;;;;5036378;28;20180;-88
2021/08/22 03:08:49;;;;;;;28.23;14.48;;;12.50;99.90;;;;;;5020187;28;20180;-89
2021/08/22 03:11:18;;;;;;;24.13;14.38;;;12.40;99.90;;;;;;5020242;28;20637;-88
2021/08/22 03:13:45;;;;;;;27.58;14.15;;;12.40;99.90;;;;;;5054557;28;20172;-88
2021/08/22 03:16:11;;;;;;;24.60;14.27;;;12.40;99.90;;;;;;5003865;28;20270;-87
2021/08/22 03:18:37;;;;;;;22.58;14.20;;;12.40;99.90;;;;;;5019962;28;20708;-88
2021/08/22 03:21:02;;;;;;;20.38;14.13;;;12.40;99.90;;;;;;5019462;28;20207;-90
2021/08/22 03:23:28;;;;;;;22.35;13.82;;;12.40;99.90;;;;;;5020478;28;20271;-88
2021/08/22 03:25:54;;;;;;;22.02;13.57;;;12.40;99.90;;;;;;5054622;28;20230;-88
2021/08/22 03:28:20;;;;;;;24.10;14.18;;;12.40;99.90;;;;;;5053459;28;20699;-88
2021/08/22 03:30:46;;;;;;;19.40;13.30;;;12.40;99.90;;;;;;5003761;28;20207;-89
2021/08/22 03:33:12;;;;;;;21.10;14.52;;;12.40;99.90;;;;;;5006874;28;20591;-92
2021/08/22 03:35:38;;;;;;;35.60;14.55;;;12.30;99.90;;;;;;5028108;28;20205;-88
2021/08/22 03:38:04;;;;;;;25.52;14.63;;;12.30;99.90;;;;;;5034502;28;20602;-89
2021/08/22 03:40:30;;;;;;;23.70;14.75;;;12.30;99.90;;;;;;5033927;28;20548;-88
2021/08/22 03:42:55;;;;;;;21.15;14.65;;;12.40;99.90;;;;;;5032528;28;20655;-88
2021/08/22 03:45:21;;;;;;;20.15;13.43;;;12.40;99.90;;;;;;5017698;28;20180;-88
2021/08/22 03:47:47;;;;;;;21.27;13.85;;;12.40;99.90;;;;;;5032493;28;20200;-88
2021/08/22 03:50:12;;;;;;;18.27;12.60;;;12.40;99.90;;;;;;5033584;28;20192;-87
2021/08/22 03:52:38;;;;;;;24.67;14.13;;;12.50;99.90;;;;;;5033682;28;20176;-88
2021/08/22 03:55:04;;;;;;;20.02;13.48;;;12.50;99.90;;;;;;5032543;28;20661;-88
2021/08/22 03:57:30;;;;;;;22.30;13.52;;;12.40;99.90;;;;;;5043500;28;20179;-88
2021/08/22 03:59:55;;;;;;;24.80;13.93;;;12.40;99.90;;;;;;5032289;28;20184;-88
2021/08/22 04:02:23;;;;;;;20.55;13.75;;;12.40;99.90;;;;;;5016276;28;20228;-88
2021/08/22 04:04:49;;;;;;;26.15;13.75;;;12.50;99.90;;;;;;5016567;28;20176;-88
2021/08/22 04:07:15;;;;;;;25.58;14.13;;;12.50;99.90;;;;;;5018852;28;20212;-87
2021/08/22 04:09:40;;;;;;;21.90;14.88;;;12.50;99.90;;;;;;5034384;28;20241;-88
2021/08/22 04:12:06;;;;;;;22.80;14.50;;;12.60;99.90;;;;;;5053766;28;20580;-88
2021/08/22 04:14:32;;;;;;;25.65;14.13;;;12.60;99.90;;;;;;5015758;28;20251;-89
2021/08/22 04:16:58;;;;;;;25.58;13.93;;;12.70;99.90;;;;;;5033490;28;20278;-89
2021/08/22 04:19:23;;;;;;;23.98;13.55;;;12.70;99.90;;;;;;5031789;28;20249;-88
2021/08/22 04:21:49;;;;;;;21.95;14.02;;;12.70;99.90;;;;;;5015947;28;20195;-88
2021/08/22 04:24:15;;;;;;;20.20;13.82;;;12.80;99.90;;;;;;5032206;28;20185;-88
2021/08/22 04:26:41;;;;;;;25.08;14.50;;;12.80;99.90;;;;;;5031713;28;20246;-88
2021/08/22 04:29:09;;;;;;;21.65;13.40;;;12.90;99.90;;;;;;5032140;28;20641;-88
2021/08/22 04:31:34;;;;;;;21.63;13.80;;;12.90;99.90;;;;;;5032861;28;20204;-88
2021/08/22 04:34:00;;;;;;;21.45;13.23;;;13.00;99.90;;;;;;5016153;28;20207;-88
2021/08/22 04:36:26;;;;;;;19.13;13.00;;;13.00;99.90;;;;;;5042046;28;20187;-89
2021/08/22 04:38:51;;;;;;;20.58;13.63;;;13.10;99.90;;;;;;5016961;28;20615;-89
2021/08/22 04:41:21;;;;;;;24.23;13.40;;;13.10;99.90;;;;;;5030928;28;20188;-90
2021/08/22 04:43:47;;;;;;;22.30;13.90;;;13.20;99.90;;;;;;5030551;28;20255;-90
2021/08/22 04:46:13;;;;;;;22.23;14.45;;;13.30;99.90;;;;;;5031357;28;20183;-90
2021/08/22 04:48:39;;;;;;;21.58;13.55;;;13.30;99.90;;;;;;5029939;28;20240;-89
2021/08/22 04:51:05;;;;;;;22.33;14.73;;;13.40;99.90;;;;;;5029965;28;20176;-90
2021/08/22 04:53:32;;;;;;;27.10;14.52;;;13.50;99.90;;;;;;5013846;28;20191;-89
2021/08/22 04:55:58;;;;;;;26.55;15.75;;;13.60;99.90;;;;;;5030530;28;20650;-90
2021/08/22 04:58:23;;;;;;;21.83;14.93;;;13.70;99.90;;;;;;5030917;28;20188;-88
2021/08/22 05:00:49;;;;;;;23.33;15.63;;;;;;;;;;5015539;28;20188;-89
2021/08/22 05:03:15;;;;;;;23.20;15.63;;;13.90;99.90;;;;;;5015092;28;20340;-89
2021/08/22 05:05:41;;;;;;;20.98;14.13;;;14.00;99.90;;;;;;5031683;28;20188;-89
2021/08/22 05:08:07;;;;;;;21.27;15.68;;;14.10;99.90;;;;;;5017099;28;20297;-89
2021/08/22 05:10:34;;;;;;;23.35;15.10;;;14.20;99.90;;;;;;5037793;28;20196;-89
2021/08/22 05:13:00;;;;;;;26.17;14.70;;;14.30;99.90;;;;;;5036342;28;20177;-89
2021/08/22 05:15:26;;;;;;;22.52;15.43;;;14.40;99.90;;;;;;5032431;28;20191;-88
2021/08/22 05:17:51;;;;;;;22.52;14.80;;;14.50;99.90;;;;;;5032624;28;20184;-89
2021/08/22 05:20:17;;;;;;;24.02;14.73;;;14.60;99.90;;;;;;5033420;28;20287;-88
2021/08/22 05:22:43;;;;;;;22.58;15.23;;;14.70;99.90;;;;;;5018156;28;20188;-89
2021/08/22 05:25:09;;;;;;;20.40;13.80;;;14.80;99.90;;;;;;5035692;28;20660;-90
2021/08/22 05:27:34;;;;;;;22.77;14.40;;;14.80;99.90;;;;;;5018638;28;20224;-90
2021/08/22 05:30:00;;;;;;;19.63;13.55;;;15.00;99.90;;;;;;5035693;28;20195;-88
2021/08/22 05:32:25;;;;;;;20.98;14.68;;;15.10;99.90;;;;;;5018695;28;20675;-89
2021/08/22 05:34:51;;;;;;;24.00;15.50;;;15.20;99.90;;;;;;5018086;28;20662;-88
2021/08/22 05:37:17;;;;;;;20.13;14.63;;;15.20;99.90;;;;;;5014367;28;21027;-89
2021/08/22 05:39:42;;;;;;;19.67;13.48;;;15.30;99.90;;;;;;5003905;28;20187;-90
2021/08/22 05:42:08;;;;;;;20.77;14.77;;;15.50;99.90;;;;;;5023776;28;20204;-90
2021/08/22 05:44:35;;;;;;;21.90;14.50;;;;;;;;;;5018927;28;20195;-91
2021/08/22 05:47:00;;;;;;;19.02;13.27;;;15.70;99.90;;;;;;5034735;28;20207;-89
2021/08/22 05:49:26;;;;;;;20.10;14.38;;;15.80;99.90;;;;;;5036101;28;20187;-89
2021/08/22 05:51:52;;;;;;;20.08;13.27;;;15.80;99.90;;;;;;5035922;28;20233;-91
2021/08/22 05:54:18;;;;;;;17.98;13.57;;;;;;;;;;5036283;28;20202;-89
2021/08/22 05:56:44;;;;;;;20.42;14.52;;;15.90;99.90;;;;;;5034870;28;20726;-91
2021/08/22 05:59:09;;;;;;;18.65;13.50;;;16.00;99.90;;;;;;5036084;28;20181;-88
2021/08/22 06:01:36;;;;;;;20.75;13.20;;;16.10;99.90;;;;;;5010859;28;20176;-88
2021/08/22 06:04:02;;;;;;;17.63;12.57;;;16.20;99.90;;;;;;5019699;28;20180;-89
2021/08/22 06:06:28;;;;;;;18.73;12.73;;;16.30;99.90;;;;;;5016383;28;20205;-90
2021/08/22 06:08:54;;;;;;;18.85;12.80;;;16.30;99.90;;;;;;4999375;28;20274;-89
2021/08/22 06:11:19;;;;;;;18.17;13.50;;;16.40;99.90;;;;;;5023598;28;20186;-89
2021/08/22 06:13:45;;;;;;;23.80;14.77;;;16.40;99.90;;;;;;5031896;28;20702;-88
2021/08/22 06:16:10;;;;;;;20.08;14.15;;;16.60;99.90;;;;;;5000299;28;20177;-88
2021/08/22 06:18:36;;;;;;;18.52;14.30;;;16.70;99.90;;;;;;5012447;28;20196;-89
2021/08/22 06:21:02;;;;;;;21.80;13.48;;;16.70;99.90;;;;;;5033342;28;20203;-88
2021/08/22 06:23:27;;;;;;;19.95;14.20;;;16.80;99.90;;;;;;5034973;28;20179;-90
2021/08/22 06:25:53;;;;;;;23.50;13.85;;;16.90;99.90;;;;;;5021952;28;20226;-89
2021/08/22 06:28:21;;;;;;;19.40;14.68;;;17.00;99.90;;;;;;5034211;28;20215;-91
2021/08/22 06:30:47;;;;;;;23.42;13.75;;;17.40;99.90;;;;;;5018844;28;20192;-86
2021/08/22 06:33:13;;;;;;;18.85;13.60;;;17.60;99.90;;;;;;5018036;28;20184;-88
2021/08/22 06:35:42;;;;;;;17.90;13.07;;;17.40;99.90;;;;;;5015619;28;20629;-91
2021/08/22 06:38:07;;;;;;;17.75;12.80;;;17.60;99.90;;;;;;5021779;28;20280;-88
2021/08/22 06:40:33;;;;;;;17.65;12.75;;;17.70;99.90;;;;;;5004382;28;20275;-91
2021/08/22 06:42:58;;;;;;;17.05;10.27;;;17.80;99.90;;;;;;5031202;28;20210;-89
2021/08/22 06:45:24;;;;;;;15.30;10.50;;;18.30;99.90;;;;;;5040616;28;20782;-89
2021/08/22 06:47:53;;;;;;;13.48;10.38;;;18.00;99.90;;;;;;5037736;28;20216;-90
2021/08/22 06:50:20;;;;;;;15.68;10.68;;;18.10;99.90;;;;;;5001632;28;20176;-90
2021/08/22 06:52:46;;;;;;;15.85;11.85;;;18.30;99.90;;;;;;5017331;28;20180;-89
2021/08/22 06:55:12;;;;;;;13.65;10.73;;;18.40;99.90;;;;;;5011780;28;20186;-91
2021/08/22 06:57:38;;;;;;;15.00;10.88;;;18.50;99.90;;;;;;5021147;28;20176;-88
2021/08/22 07:00:04;;;;;;;14.88;10.40;;;18.80;99.90;;;;;;5004537;28;20204;-87
2021/08/22 07:02:30;;;;;;;17.90;11.30;;;18.80;99.90;;;;;;5039988;28;20278;-88
2021/08/22 07:04:56;;;;;;;14.30;10.93;;;18.90;99.90;;;;;;5040490;28;20180;-87
2021/08/22 07:07:21;;;;;;;13.57;9.60;;;18.90;99.90;;;;;;5003671;28;20656;-91
2021/08/22 07:09:47;;;;;;;14.77;10.45;;;16.40;99.90;;;;;;5000699;28;20547;-87
2021/08/22 07:12:14;;;;;;;13.05;9.10;;;19.00;99.90;;;;;;5038926;28;20186;-86
2021/08/22 07:14:40;;;;;;;16.65;9.05;;;19.10;99.90;;;;;;4995717;28;20653;-87
2021/08/22 07:17:06;;;;;;;13.18;9.07;;;19.20;99.90;;;;;;5005299;28;20199;-88
2021/08/22 07:19:34;;;;;;;14.38;8.77;;;19.30;99.90;;;;;;5017487;28;20172;-89
2021/08/22 07:22:00;;;;;;;13.13;8.85;;;19.30;99.90;;;;;;5000464;28;20400;-90
2021/08/22 07:24:25;;;;;;;13.13;7.72;;;19.40;99.90;;;;;;5029471;28;20660;-89
2021/08/22 07:26:51;;;;;;;20.05;11.23;;;19.50;99.90;;;;;;5033439;28;20204;-92
2021/08/22 07:29:17;;;;;;;11.18;7.78;;;19.60;99.90;;;;;;5017553;28;20702;-91
2021/08/22 07:31:43;;;;;;;11.55;8.27;;;;;;;;;;5044499;28;20183;-90
2021/08/22 07:34:08;;;;;;;11.35;6.90;;;19.80;99.90;;;;;;5017542;28;20979;-91
2021/08/22 07:36:34;;;;;;;11.43;7.20;;;19.90;99.90;;;;;;5006090;28;20294;-89
2021/08/22 07:39:01;;;;;;;10.00;7.05;;;19.90;99.90;;;;;;5046891;28;20199;-91
2021/08/22 07:41:26;;;;;;;11.32;6.70;;;20.00;99.90;;;;;;5022143;28;20237;-88
2021/08/22 07:43:52;;;;;;;7.05;5.43;;;20.20;99.90;;;;;;5008622;28;20624;-91
2021/08/22 07:46:17;;;;;;;10.32;5.97;;;20.30;99.90;;;;;;5013147;28;20274;-90
2021/08/22 07:48:43;;;;;;;9.75;7.32;;;20.30;99.90;;;;;;5045643;28;20231;-90
2021/08/22 07:51:11;;;;;;;8.70;6.63;;;20.40;99.90;;;;;;5026818;28;20263;-89
2021/08/22 07:53:37;;;;;;;8.73;6.25;;;20.40;99.90;;;;;;5035170;28;20206;-89
2021/08/22 07:56:04;;;;;;;8.90;6.88;;;20.40;99.90;;;;;;5035536;28;20274;-88
2021/08/22 07:58:30;;;;;;;8.30;7.05;;;20.40;99.90;;;;;;5033899;28;20187;-87
2021/08/22 08:00:57;;;;;;;9.77;6.88;;;20.50;99.90;;;;;;4999426;28;20188;-89
2021/08/22 08:03:23;;;;;;;9.60;6.55;;;20.40;99.90;;;;;;5000550;28;20236;-91
2021/08/22 08:05:49;;;;;;;9.30;5.43;;;20.40;99.90;;;;;;5039567;28;20251;-89
2021/08/22 08:08:14;;;;;;;9.43;5.57;;;20.50;99.90;;;;;;5023439;28;20200;-88
2021/08/22 08:10:40;;;;;;;9.80;6.72;;;20.60;99.90;;;;;;5047070;28;20280;-90
2021/08/22 08:13:06;;;;;;;7.35;5.40;;;20.70;99.90;;;;;;5046910;28;20241;-88
2021/08/22 08:15:32;;;;;;;8.38;5.53;;;20.80;99.90;;;;;;5021685;28;20661;-89
2021/08/22 08:17:57;;;;;;;6.50;5.00;;;20.90;99.90;;;;;;5032555;28;20224;-89
2021/08/22 08:20:44;;;;;;;10.13;5.35;;;21.00;99.90;;;;;;5018145;28;20542;-92
2021/08/22 08:23:10;;;;;;;7.40;5.65;;;21.20;99.90;;;;;;5003235;28;20196;-90
2021/08/22 08:25:42;;;;;;;8.52;4.70;;;21.30;99.90;;;;;;5014120;28;20660;-88
2021/08/22 08:28:11;;;;;;;5.57;4.65;;;21.30;99.90;;;;;;5047808;28;20547;-88
2021/08/22 08:30:37;;;;;;;6.18;4.30;;;21.40;99.90;;;;;;5019373;28;20210;-87
2021/08/22 08:33:02;;;;;;;7.05;4.13;;;21.40;99.90;;;;;;5024395;28;20188;-87
2021/08/22 08:35:28;;;;;;;5.95;4.25;;;21.60;99.90;;;;;;5016403;28;20180;-88
2021/08/22 08:37:54;;;;;;;7.07;5.55;;;21.60;99.90;;;;;;5052293;28;20221;-87
2021/08/22 08:40:20;;;;;;;6.82;4.75;;;21.70;99.90;;;;;;5056739;28;20182;-86
2021/08/22 08:42:47;;;;;;;5.70;4.70;;;21.60;99.90;;;;;;5059234;28;20180;-88
2021/08/22 08:45:34;;;;;;;5.18;3.88;;;21.70;99.90;;;;;;5037797;28;20667;-87
2021/08/22 08:48:01;;;;;;;6.35;4.22;;;21.50;99.90;;;;;;5039951;28;20321;-89
2021/08/22 08:50:31;;;;;;;4.57;3.88;;;21.60;99.90;;;;;;5039209;28;20195;-87
2021/08/22 08:53:09;;;;;;;7.30;4.60;;;21.60;99.90;;;;;;5042684;28;20183;-89
2021/08/22 08:55:38;;;;;;;7.65;5.00;;;21.60;99.90;;;;;;5036654;28;20202;-89
2021/08/22 08:58:04;;;;;;;7.00;4.32;;;21.70;99.90;;;;;;5043680;28;20191;-88
2021/08/22 09:00:33;;;;;;;8.07;4.25;;;21.80;99.90;;;;;;5043015;28;20275;-88
2021/08/22 09:03:00;;;;;;;6.47;4.55;;;21.80;99.90;;;;;;5041882;28;20223;-87
2021/08/22 09:05:59;;;;;;;4.85;3.67;;;21.90;99.90;;;;;;5061945;28;20180;-88
2021/08/22 09:08:33;;;;;;;6.00;4.15;;;21.90;99.90;;;;;;5062938;28;20298;-86
2021/08/22 09:11:37;;;;;;;6.53;3.92;;;21.90;99.90;;;;;;5052409;28;20187;-89
2021/08/22 09:14:23;;;;;;;5.50;4.50;;;22.00;99.90;;;;;;5048485;28;20179;-89
2021/08/22 09:17:27;;;;;;;6.80;3.95;;;22.10;99.90;;;;;;5066558;28;20175;-90
2021/08/22 09:20:30;;;;;;;7.65;4.38;;;22.10;99.90;;;;;;5028181;28;20187;-88
2021/08/22 09:23:17;;;;;;;4.70;4.18;;;22.20;99.90;;;;;;5065846;28;20179;-87
2021/08/22 09:26:11;;;;;;;5.05;4.10;;;22.20;99.90;;;;;;5043637;28;20207;-87
2021/08/22 09:29:14;;;;;;;5.28;4.28;;;22.20;99.90;;;;;;5030800;28;20287;-88
2021/08/22 09:32:17;;;;;;;5.45;3.97;;;22.20;99.90;;;;;;5031121;28;20188;-88
2021/08/22 09:35:14;;;;;;;7.72;4.85;;;22.30;99.90;;;;;;5039113;28;20188;-86
2021/08/22 09:38:11;;;;;;;8.23;5.18;;;22.40;99.90;;;;;;5065841;28;20184;-87
2021/08/22 09:40:55;;;;;;;5.13;4.15;;;22.60;99.90;;;;;;5054027;28;20175;-89
2021/08/22 09:43:58;;;;;;;11.57;8.07;;;22.50;99.90;;;;;;5039772;28;20191;-87
2021/08/22 09:46:45;;;;;;;5.78;4.82;;;22.60;99.90;;;;;;5051249;28;20183;-88
2021/08/22 09:49:49;;;;;;;6.20;4.80;;;22.40;99.90;;;;;;5023519;28;20189;-87
2021/08/22 09:52:24;;;;;;;5.65;4.78;;;22.20;99.90;;;;;;5029480;28;20172;-87
2021/08/22 09:55:27;;;;;;;6.13;4.63;;;22.00;99.90;;;;;;5039035;28;20632;-86
2021/08/22 09:58:20;;;;;;;6.65;4.82;;;21.90;99.90;;;;;;5026206;28;20187;-86
2021/08/22 10:01:23;;;;;;;7.85;5.28;;;21.80;99.90;;;;;;5038870;28;20680;-86
2021/08/22 10:04:16;;;;;;;7.90;4.28;;;21.70;99.90;;;;;;5019045;28;20696;-86
2021/08/22 10:06:57;;;;;;;4.47;3.78;;;21.80;99.90;;;;;;5029832;28;20263;-86
2021/08/22 10:09:24;;;;;;;6.15;4.72;;;22.10;99.90;;;;;;5034344;28;20660;-84
2021/08/22 10:12:00;;;;;;;4.68;4.10;;;22.40;99.90;;;;;;5031955;28;20909;-85
2021/08/22 10:14:28;;;;;;;6.07;3.90;;;22.80;99.90;;;;;;5032659;28;20185;-85
2021/08/22 10:16:55;;;;;;;5.22;4.18;;;23.00;99.90;;;;;;5032263;28;20591;-85
2021/08/22 10:19:27;;;;;;;4.72;3.97;;;23.10;99.90;;;;;;5033146;28;20192;-85
2021/08/22 10:22:12;;;;;;;7.75;3.53;;;23.30;99.90;;;;;;5019088;28;20605;-86
2021/08/22 10:24:43;;;;;;;4.75;3.78;;;23.20;99.90;;;;;;5032553;28;20181;-85
2021/08/22 10:27:11;;;;;;;5.45;3.90;;;23.00;99.90;;;;;;5027074;28;20208;-85
2021/08/22 10:29:49;;;;;;;6.35;4.28;;;23.10;99.90;;;;;;5028000;28;20192;-86
2021/08/22 10:32:16;;;;;;;8.48;4.43;;;23.30;99.90;;;;;;5026202;28;20192;-86
2021/08/22 10:34:47;;;;;;;5.00;4.18;;;23.30;99.90;;;;;;5032530;28;20272;-86
2021/08/22 10:37:30;;;;;;;6.47;3.97;;;23.40;99.90;;;;;;5030191;28;20195;-84
2021/08/22 10:39:56;;;;;;;9.00;4.80;;;23.30;99.90;;;;;;5030874;28;20183;-85
2021/08/22 10:42:24;;;;;;;7.80;4.63;;;23.20;99.90;;;;;;5032190;28;20181;-85
2021/08/22 10:44:51;;;;;;;9.00;4.07;;;23.20;99.90;;;;;;5031013;28;20188;-84
2021/08/22 10:47:19;;;;;;;6.50;4.15;;;23.10;99.90;;;;;;5032982;28;20216;-84
2021/08/22 10:49:54;;;;;;;7.25;4.25;;;23.20;99.90;;;;;;5031873;28;20354;-85
2021/08/22 10:52:33;;;;;;;6.03;4.28;;;23.50;99.90;;;;;;5035199;28;20565;-87
2021/08/22 10:55:13;;;;;;;6.75;4.03;;;23.80;99.90;;;;;;5035035;28;20188;-87
2021/08/22 10:57:45;;;;;;;6.78;3.80;;;24.00;99.90;;;;;;5033088;28;20284;-86
2021/08/22 11:00:24;;;;;;;6.40;3.88;;;24.20;99.90;;;;;;5031735;28;20242;-86
2021/08/22 11:02:54;;;;;;;4.65;3.80;;;24.20;99.90;;;;;;5044229;28;20227;-86
2021/08/22 11:05:22;;;;;;;3.95;3.50;;;24.00;99.90;;;;;;5035576;28;20222;-85
2021/08/22 11:07:55;;;;;;;7.60;3.58;;;23.80;99.90;;;;;;5035412;28;20212;-86
2021/08/22 11:10:23;;;;;;;4.18;3.78;;;23.60;99.90;;;;;;5049897;28;20200;-87
2021/08/22 11:12:51;;;;;;;6.07;4.18;;;23.60;99.90;;;;;;5052571;28;20188;-87
2021/08/22 11:15:28;;;;;;;4.47;3.92;;;23.60;99.90;;;;;;5039550;28;20184;-86
2021/08/22 11:17:55;;;;;;;10.00;4.20;;;23.50;99.90;;;;;;5055418;28;20210;-87
2021/08/22 11:20:24;;;;;;;11.27;5.78;;;23.30;99.90;;;;;;5035734;28;20180;-87
2021/08/22 11:23:00;;;;;;;6.28;3.88;;;23.50;99.90;;;;;;5050916;28;20179;-88
2021/08/22 11:25:28;;;;;;;6.03;4.45;;;23.70;99.90;;;;;;5054508;28;20183;-89
2021/08/22 11:28:08;;;;;;;5.53;4.72;;;24.00;99.90;;;;;;5045302;28;20231;-87
2021/08/22 11:30:35;;;;;;;7.82;4.70;;;24.40;99.90;;;;;;5015878;28;20192;-88
2021/08/22 11:33:01;;;;;;;9.85;5.57;;;24.40;99.90;;;;;;5050333;28;20183;-87
2021/08/22 11:35:27;;;;;;;8.10;4.38;;;24.30;99.90;;;;;;5044740;28;20271;-87
2021/08/22 11:37:56;;;;;;;6.25;3.83;;;24.00;99.90;;;;;;5036872;28;20668;-86
2021/08/22 11:40:23;;;;;;;5.38;4.55;;;23.80;99.90;;;;;;5029975;28;20184;-86
2021/08/22 11:42:51;;;;;;;4.32;3.83;;;23.70;99.90;;;;;;5035995;28;20189;-85
2021/08/22 11:45:21;;;;;;;6.80;4.82;;;23.80;99.90;;;;;;5040695;28;20175;-86
2021/08/22 11:47:47;;;;;;;7.35;3.80;;;24.00;99.90;;;;;;5053482;28;20253;-85
2021/08/22 11:50:15;;;;;;;5.88;4.00;;;24.20;99.90;;;;;;5039506;28;20266;-86
2021/08/22 11:52:47;;;;;;;6.20;4.53;;;24.50;99.90;;;;;;4999887;28;20187;-86
2021/08/22 11:55:19;;;;;;;6.93;5.63;;;24.60;99.90;;;;;;5030556;28;20200;-86
2021/08/22 11:57:44;;;;;;;9.60;5.15;;;24.50;99.90;;;;;;5026290;28;20491;-87
2021/08/22 12:00:12;;;;;;;4.90;3.95;;;24.50;99.90;;;;;;5025972;28;20659;-87
2021/08/22 12:02:53;;;;;;;5.60;4.03;;;24.40;99.90;;;;;;5031289;28;20228;-87
2021/08/22 12:05:21;;;;;;;4.82;4.18;;;24.20;99.90;;;;;;5019488;28;20183;-86
2021/08/22 12:07:49;;;;;;;6.07;4.22;;;24.10;99.90;;;;;;5047719;28;20211;-88
2021/08/22 12:10:24;;;;;;;4.78;3.47;;;24.10;99.90;;;;;;5054813;28;20195;-87
2021/08/22 12:12:50;;;;;;;7.10;3.97;;;24.00;99.90;;;;;;5050135;28;20259;-88
2021/08/22 12:15:16;;;;;;;4.75;3.75;;;23.80;99.90;;;;;;5046328;28;20251;-87
2021/08/22 12:17:43;;;;;;;4.30;3.50;;;23.70;99.90;;;;;;5029845;28;20202;-87
2021/08/22 12:20:16;;;;;;;7.05;4.28;;;23.70;99.90;;;;;;5022591;28;20184;-88
2021/08/22 12:22:42;;;;;;;5.25;4.15;;;23.70;99.90;;;;;;5031711;28;20246;-87
2021/08/22 12:25:07;;;;;;;4.88;3.40;;;23.80;99.90;;;;;;5038349;28;20183;-87
2021/08/22 12:27:37;;;;;;;5.85;4.28;;;23.80;99.90;;;;;;5021307;28;20218;-88
2021/08/22 12:30:09;;;;;;;9.32;6.03;;;23.90;99.90;;;;;;5018198;28;20287;-88
2021/08/22 12:32:38;;;;;;;6.63;4.03;;;24.00;99.90;;;;;;5038155;28;20184;-88
2021/08/22 12:35:08;;;;;;;5.70;3.80;;;23.80;99.90;;;;;;5050081;28;20184;-88
2021/08/22 12:37:34;;;;;;;4.10;3.67;;;23.70;99.90;;;;;;5025564;28;20640;-88
2021/08/22 12:40:05;;;;;;;6.68;4.32;;;23.70;99.90;;;;;;5027128;28;20199;-88
2021/08/22 12:42:31;;;;;;;8.75;4.80;;;23.70;99.90;;;;;;5049432;28;20192;-88
2021/08/22 12:44:57;;;;;;;5.03;4.13;;;23.90;99.90;;;;;;5017052;28;20237;-87
2021/08/22 12:47:23;;;;;;;5.80;4.65;;;24.30;99.90;;;;;;5036246;28;20216;-87